createdAt,value
2023-05-21T00:00:55.020Z,1.3
2023-05-21T00:03:55.513Z,1.55
2023-05-21T00:06:55.033Z,0.9
2023-05-21T00:09:55.017Z,1.35
2023-05-21T00:12:55.045Z,1.1
2023-05-21T00:15:55.066Z,1.25
2023-05-21T00:18:55.067Z,1.45
2023-05-21T00:21:55.068Z,1.2
2023-05-21T00:24:54.963Z,1.1
2023-05-21T00:27:55.012Z,1.4
2023-05-21T00:30:55.649Z,0.75
2023-05-21T00:33:55.071Z,0.5
2023-05-21T00:36:55.028Z,0.7
2023-05-21T00:39:57.549Z,0.9
2023-05-21T00:42:55.059Z,0.7
2023-05-21T00:45:55.170Z,1.45
2023-05-21T00:48:55.043Z,0.45
2023-05-21T00:51:55.068Z,0.5
2023-05-21T00:54:55.182Z,0.85
2023-05-21T00:57:55.068Z,0.4
2023-05-21T01:00:55.060Z,0.4
2023-05-21T01:03:55.023Z,0.25
2023-05-21T01:06:55.144Z,0.5
2023-05-21T01:09:55.089Z,0.35
2023-05-21T01:12:55.019Z,0.65
2023-05-21T01:15:55.077Z,0.7
2023-05-21T01:18:55.491Z,0.4
2023-05-21T01:21:55.045Z,0.6
2023-05-21T01:24:55.104Z,0.9
2023-05-21T01:27:55.113Z,0.8
2023-05-21T01:30:55.136Z,0.95
2023-05-21T01:33:55.145Z,0.7
2023-05-21T01:36:55.175Z,0.75
2023-05-21T01:39:55.169Z,1.05
2023-05-21T01:42:55.102Z,0.85
2023-05-21T01:45:55.179Z,0.7
2023-05-21T01:48:55.117Z,1
2023-05-21T01:51:55.125Z,1.25
2023-05-21T01:54:55.101Z,1.15
2023-05-21T01:57:55.229Z,0.7
2023-05-21T02:00:55.110Z,0.6
2023-05-21T02:03:55.402Z,1.1
2023-05-21T02:06:55.176Z,1.15
2023-05-21T02:09:55.132Z,0.75
2023-05-21T02:12:55.256Z,0.9
2023-05-21T02:15:55.394Z,0.95
2023-05-21T02:18:55.320Z,0.95
2023-05-21T02:21:55.144Z,1.35
2023-05-21T02:24:55.128Z,0.85
2023-05-21T02:27:55.433Z,0.9
2023-05-21T02:30:55.209Z,0.8
2023-05-21T02:33:55.203Z,0.8
2023-05-21T02:36:55.115Z,0.4
2023-05-21T02:39:55.128Z,0.45
2023-05-21T02:42:55.124Z,0.7
2023-05-21T02:45:55.324Z,0.65
2023-05-21T02:48:55.105Z,0.8
2023-05-21T02:51:55.190Z,0.85
2023-05-21T02:54:55.217Z,0.85
2023-05-21T02:57:55.224Z,0.65
2023-05-21T03:00:55.272Z,0.6
2023-05-21T03:03:55.157Z,0.6
2023-05-21T03:06:55.170Z,0.7
2023-05-21T03:09:55.172Z,0.75
2023-05-21T03:12:55.204Z,0.65
2023-05-21T03:15:55.184Z,0.9
2023-05-21T03:18:55.302Z,0.7
2023-05-21T03:21:55.155Z,0.8
2023-05-21T03:24:55.243Z,1.05
2023-05-21T03:27:55.172Z,0.75
2023-05-21T03:30:55.257Z,0.7
2023-05-21T03:33:55.291Z,0.55
2023-05-21T03:36:55.199Z,0.6
2023-05-21T03:39:55.225Z,1.4
2023-05-21T03:42:55.145Z,1
2023-05-21T03:45:55.265Z,0.75
2023-05-21T03:48:55.212Z,0.75
2023-05-21T03:51:55.189Z,0.9
2023-05-21T03:54:55.222Z,0.7
2023-05-21T03:57:55.225Z,0.7
2023-05-21T04:00:55.221Z,0.85
2023-05-21T04:03:55.394Z,0.75
2023-05-21T04:06:55.190Z,0.75
2023-05-21T04:09:55.241Z,0.7
2023-05-21T04:12:55.224Z,0.75
2023-05-21T04:15:55.274Z,0.85
2023-05-21T04:18:55.410Z,0.5
2023-05-21T04:21:55.165Z,0.6
2023-05-21T04:24:55.310Z,0.8
2023-05-21T04:27:55.211Z,0.75
2023-05-21T04:30:55.310Z,0.5
2023-05-21T04:33:55.285Z,0.7
2023-05-21T04:36:55.278Z,0.85
2023-05-21T04:39:55.224Z,1
2023-05-21T04:42:55.227Z,0.75
2023-05-21T04:45:55.264Z,0.6
2023-05-21T04:48:55.392Z,0.75
2023-05-21T04:51:55.286Z,0.9
2023-05-21T04:54:55.346Z,0.7
2023-05-21T04:57:55.249Z,0.85
2023-05-21T05:00:55.356Z,0.95
2023-05-21T05:03:55.572Z,0.85
2023-05-21T05:06:55.304Z,0.75
2023-05-21T05:09:55.298Z,0.7
2023-05-21T05:12:55.372Z,0.85
2023-05-21T05:15:55.993Z,0.6
2023-05-21T05:18:55.439Z,0.9
2023-05-21T05:21:55.314Z,0.8
2023-05-21T05:24:55.314Z,1
2023-05-21T05:27:55.263Z,0.65
2023-05-21T05:30:55.342Z,0.85
2023-05-21T05:33:55.340Z,1
2023-05-21T05:36:55.299Z,1.1
2023-05-21T05:39:55.349Z,0.55
2023-05-21T05:42:55.239Z,0.6
2023-05-21T05:45:55.420Z,1
2023-05-21T05:48:55.322Z,1.1
2023-05-21T05:51:55.254Z,0.7
2023-05-21T05:54:55.361Z,1
2023-05-21T05:57:55.298Z,0.9
2023-05-21T06:00:55.285Z,0.85
2023-05-21T06:03:55.482Z,0.85
2023-05-21T06:06:55.345Z,0.75
2023-05-21T06:09:55.381Z,1
2023-05-21T06:12:55.346Z,0.9
2023-05-21T06:15:55.408Z,1.4
2023-05-21T06:18:55.360Z,1.55
2023-05-21T06:21:55.373Z,1.25
2023-05-21T06:24:55.304Z,1.55
2023-05-21T06:27:55.328Z,1.45
2023-05-21T06:30:55.466Z,1.55
2023-05-21T06:33:55.875Z,1.1
2023-05-21T06:36:55.417Z,1.2
2023-05-21T06:39:55.481Z,1.7
2023-05-21T06:42:55.448Z,1.3
2023-05-21T06:45:55.457Z,1.15
2023-05-21T06:48:55.395Z,1.5
2023-05-21T06:51:55.329Z,1.75
2023-05-21T06:54:55.364Z,1.95
2023-05-21T06:57:55.385Z,2.1
2023-05-21T07:00:55.472Z,2.45
2023-05-21T07:03:55.431Z,1.85
2023-05-21T07:06:55.423Z,2
2023-05-21T07:09:55.434Z,2.1
2023-05-21T07:12:55.374Z,1.7
2023-05-21T07:15:55.447Z,2.05
2023-05-21T07:18:55.479Z,1.95
2023-05-21T07:21:55.413Z,1.4
2023-05-21T07:24:55.392Z,1.65
2023-05-21T07:27:55.435Z,2.3
2023-05-21T07:30:55.528Z,1.55
2023-05-21T07:33:55.512Z,1.5
2023-05-21T07:36:55.474Z,2.3
2023-05-21T07:39:55.461Z,1.95
2023-05-21T07:42:55.423Z,1.8
2023-05-21T07:45:55.558Z,1.75
2023-05-21T07:48:55.413Z,1.8
2023-05-21T07:51:55.475Z,1.6
2023-05-21T07:54:55.464Z,1.2
2023-05-21T07:57:55.814Z,1.85
2023-05-21T08:00:55.445Z,1.55
2023-05-21T08:03:55.749Z,2
2023-05-21T08:06:55.478Z,1.75
2023-05-21T08:09:55.498Z,1.9
2023-05-21T08:12:55.409Z,2
2023-05-21T08:15:55.543Z,2.2
2023-05-21T08:18:55.505Z,1.55
2023-05-21T08:21:55.445Z,2.15
2023-05-21T08:24:55.819Z,2
2023-05-21T08:27:55.582Z,2.2
2023-05-21T08:30:55.478Z,1.05
2023-05-21T08:33:55.586Z,2.65
2023-05-21T08:36:55.552Z,2.1
2023-05-21T08:39:55.509Z,1.6
2023-05-21T08:42:55.530Z,1.8
2023-05-21T08:45:55.649Z,2.35
2023-05-21T08:48:55.473Z,1.55
2023-05-21T08:51:55.452Z,2
2023-05-21T08:54:55.525Z,1.95
2023-05-21T08:57:55.524Z,2.2
2023-05-21T09:00:55.567Z,1.8
2023-05-21T09:04:08.603Z,2
2023-05-21T09:06:55.557Z,1.85
2023-05-21T09:09:55.504Z,1.7
2023-05-21T09:12:55.568Z,2.1
2023-05-21T09:15:55.422Z,2
2023-05-21T09:18:55.554Z,1.5
2023-05-21T09:21:55.512Z,2.05
2023-05-21T09:24:58.442Z,1.45
2023-05-21T09:27:55.507Z,1.6
2023-05-21T09:30:55.693Z,1.9
2023-05-21T09:33:55.601Z,1.9
2023-05-21T09:36:55.515Z,1.95
2023-05-21T09:39:55.591Z,2.35
2023-05-21T09:42:55.605Z,1.95
2023-05-21T09:45:55.742Z,1.75
2023-05-21T09:48:55.511Z,1.55
2023-05-21T09:51:55.548Z,1.95
2023-05-21T09:54:55.556Z,1.8
2023-05-21T09:57:55.507Z,1.65
2023-05-21T10:00:55.606Z,1.95
2023-05-21T10:03:55.593Z,1.85
2023-05-21T10:06:55.611Z,1.65
2023-05-21T10:09:55.629Z,2
2023-05-21T10:12:55.806Z,2.15
2023-05-21T10:15:55.586Z,1.85
2023-05-21T10:18:55.624Z,1.8
2023-05-21T10:21:55.635Z,2.15
2023-05-21T10:24:55.550Z,1.55
2023-05-21T10:27:55.520Z,1.5
2023-05-21T10:30:55.615Z,1.15
2023-05-21T10:33:55.573Z,1.35
2023-05-21T10:36:55.597Z,0.9
2023-05-21T10:39:55.586Z,1
2023-05-21T10:42:55.607Z,1.45
2023-05-21T10:45:55.674Z,1.3
2023-05-21T10:48:55.615Z,1.8
2023-05-21T10:51:55.666Z,1.75
2023-05-21T10:54:55.645Z,1.4
2023-05-21T10:57:55.583Z,1.55
2023-05-21T11:00:55.814Z,1
2023-05-21T11:03:55.638Z,1.4
2023-05-21T11:06:55.622Z,2.05
2023-05-21T11:09:55.640Z,1.35
2023-05-21T11:12:55.564Z,1.8
2023-05-21T11:15:55.639Z,2
2023-05-21T11:18:55.621Z,1.65
2023-05-21T11:21:55.657Z,1.45
2023-05-21T11:24:56.099Z,1.9
2023-05-21T11:27:55.665Z,2.05
2023-05-21T11:30:55.773Z,1.6
2023-05-21T11:33:55.646Z,1.55
2023-05-21T11:36:55.690Z,1.75
2023-05-21T11:39:55.930Z,1.55
2023-05-21T11:42:55.866Z,1.9
2023-05-21T11:45:55.698Z,2
2023-05-21T11:48:55.719Z,1.25
2023-05-21T11:51:55.645Z,2.4
2023-05-21T11:54:55.645Z,1.75
2023-05-21T11:57:55.768Z,1.4
2023-05-21T12:00:55.646Z,1.6
2023-05-21T12:03:55.689Z,2.05
2023-05-21T12:06:55.604Z,2.25
2023-05-21T12:09:55.737Z,2.65
2023-05-21T12:12:58.646Z,2.3
2023-05-21T12:15:55.662Z,2.85
2023-05-21T12:18:58.140Z,2.3
2023-05-21T12:21:55.744Z,2.05
2023-05-21T12:24:55.714Z,2.05
2023-05-21T12:27:55.673Z,2.15
2023-05-21T12:30:55.730Z,2.1
2023-05-21T12:33:55.677Z,2.65
2023-05-21T12:36:55.687Z,1.2
2023-05-21T12:39:55.720Z,2.35
2023-05-21T12:42:55.743Z,1.85
2023-05-21T12:45:55.716Z,1.7
2023-05-21T12:48:55.755Z,0.85
2023-05-21T12:51:55.658Z,1
2023-05-21T12:54:55.662Z,1.4
2023-05-21T12:57:55.755Z,2.35
2023-05-21T13:00:55.729Z,1.35
2023-05-21T13:03:55.764Z,2.3
2023-05-21T13:06:55.730Z,1.8
2023-05-21T13:09:55.730Z,1.65
2023-05-21T13:12:55.846Z,1.75
2023-05-21T13:15:55.826Z,1.8
2023-05-21T13:18:55.805Z,1.55
2023-05-21T13:21:55.738Z,2.7
2023-05-21T13:24:55.782Z,1.75
2023-05-21T13:27:55.790Z,1.7
2023-05-21T13:30:55.715Z,1.55
2023-05-21T13:33:55.796Z,2
2023-05-21T13:36:55.764Z,1.45
2023-05-21T13:39:55.781Z,2.05
2023-05-21T13:42:55.781Z,1.4
2023-05-21T13:45:55.719Z,1.45
2023-05-21T13:48:55.863Z,1.1
2023-05-21T13:51:55.773Z,1.2
2023-05-21T13:54:55.771Z,1.5
2023-05-21T13:57:55.804Z,2.25
2023-05-21T14:00:55.856Z,1.85
2023-05-21T14:03:55.770Z,1.65
2023-05-21T14:06:55.836Z,1.15
2023-05-21T14:09:55.836Z,1.85
2023-05-21T14:13:07.694Z,2.4
2023-05-21T14:15:55.825Z,1.4
2023-05-21T14:18:55.938Z,1.15
2023-05-21T14:21:55.814Z,1.85
2023-05-21T14:24:55.869Z,1.75
2023-05-21T14:27:55.894Z,1.9
2023-05-21T14:30:55.742Z,1.7
2023-05-21T14:33:55.833Z,2.25
2023-05-21T14:36:55.888Z,1.75
2023-05-21T14:39:55.836Z,1.7
2023-05-21T14:42:55.860Z,2.1
2023-05-21T14:45:55.891Z,1.55
2023-05-21T14:48:55.936Z,1.4
2023-05-21T14:51:55.876Z,1.15
2023-05-21T14:54:55.867Z,1.95
2023-05-21T14:57:55.814Z,1.1
2023-05-21T15:00:55.900Z,1.05
2023-05-21T15:03:56.287Z,1.65
2023-05-21T15:06:55.787Z,1.65
2023-05-21T15:09:55.890Z,2.15
2023-05-21T15:12:55.942Z,2
2023-05-21T15:15:55.975Z,1.55
2023-05-21T15:18:55.847Z,1.75
2023-05-21T15:21:55.889Z,1.3
2023-05-21T15:24:55.869Z,2.25
2023-05-21T15:27:55.883Z,1
2023-05-21T15:30:55.924Z,1.25
2023-05-21T15:33:55.838Z,1.25
2023-05-21T15:36:55.926Z,1.8
2023-05-21T15:39:55.987Z,2.05
2023-05-21T15:42:55.960Z,1.55
2023-05-21T15:45:55.984Z,1.45
2023-05-21T15:48:55.958Z,1
2023-05-21T15:51:55.862Z,1.4
2023-05-21T15:54:55.948Z,1.25
2023-05-21T15:57:55.934Z,0.75
2023-05-21T16:00:55.970Z,1.3
2023-05-21T16:03:55.990Z,1.25
2023-05-21T16:06:55.967Z,1.6
2023-05-21T16:09:55.922Z,1.3
2023-05-21T16:12:56.005Z,1.9
2023-05-21T16:15:55.918Z,1.55
2023-05-21T16:18:56.011Z,1.5
2023-05-21T16:21:56.011Z,1.6
2023-05-21T16:24:55.901Z,1.15
2023-05-21T16:27:55.951Z,1.35
2023-05-21T16:30:56.086Z,1.45
2023-05-21T16:33:55.952Z,1.6
2023-05-21T16:36:56.049Z,1.3
2023-05-21T16:39:56.077Z,1.35
2023-05-21T16:42:56.060Z,1.3
2023-05-21T16:45:55.985Z,1
2023-05-21T16:48:56.048Z,1.5
2023-05-21T16:51:56.118Z,1.35
2023-05-21T16:54:55.994Z,1.15
2023-05-21T16:57:56.033Z,1.6
2023-05-21T17:00:56.052Z,0.8
2023-05-21T17:03:56.634Z,1.6
2023-05-21T17:06:55.997Z,2
2023-05-21T17:09:56.006Z,2.1
2023-05-21T17:12:57.229Z,1.7
2023-05-21T17:15:56.025Z,1.65
2023-05-21T17:18:56.152Z,1.15
2023-05-21T17:21:56.029Z,1.35
2023-05-21T17:24:56.000Z,0.9
2023-05-21T17:27:55.982Z,0.9
2023-05-21T17:30:56.012Z,0.95
2023-05-21T17:33:56.027Z,0.85
2023-05-21T17:36:56.032Z,0.75
2023-05-21T17:39:55.990Z,1.2
2023-05-21T17:42:56.004Z,1.1
2023-05-21T17:45:56.097Z,0.7
2023-05-21T17:48:56.042Z,0.55
2023-05-21T17:51:56.086Z,0.65
2023-05-21T17:54:56.008Z,0.7
2023-05-21T17:57:55.977Z,0.55
2023-05-21T18:00:56.163Z,0.6
2023-05-21T18:03:56.068Z,0.65
2023-05-21T18:06:56.049Z,0.75
2023-05-21T18:09:56.027Z,0.9
2023-05-21T18:12:56.034Z,0.6
2023-05-21T18:15:56.046Z,1.15
2023-05-21T18:18:56.053Z,1.2
2023-05-21T18:21:56.080Z,0.6
2023-05-21T18:24:56.050Z,0.6
2023-05-21T18:27:56.048Z,0.6
2023-05-21T18:30:56.046Z,0.35
2023-05-21T18:33:56.011Z,0.5
2023-05-21T18:36:56.052Z,0.25
2023-05-21T18:39:56.092Z,0.15
2023-05-21T18:42:56.013Z,0.2
2023-05-21T18:45:56.121Z,0.25
2023-05-21T18:48:55.970Z,0.15
2023-05-21T18:51:56.064Z,0.3
2023-05-21T18:54:56.079Z,0.3
2023-05-21T18:57:56.090Z,0.4
2023-05-21T19:00:56.046Z,0.6
2023-05-21T19:03:56.093Z,0.35
2023-05-21T19:06:56.042Z,0.35
2023-05-21T19:09:56.066Z,0.35
2023-05-21T19:12:56.149Z,0.35
2023-05-21T19:15:56.134Z,0.35
2023-05-21T19:18:56.254Z,0.4
2023-05-21T19:21:56.153Z,0.35
2023-05-21T19:24:56.118Z,0.45
2023-05-21T19:27:56.191Z,0.45
2023-05-21T19:30:56.128Z,0.4
2023-05-21T19:33:56.215Z,0.45
2023-05-21T19:36:56.133Z,0.6
2023-05-21T19:39:56.084Z,0.5
2023-05-21T19:42:56.140Z,0.7
2023-05-21T19:45:56.164Z,0.45
2023-05-21T19:48:56.137Z,0.45
2023-05-21T19:51:56.055Z,0.45
2023-05-21T19:54:56.103Z,0.8
2023-05-21T19:57:56.109Z,0.7
2023-05-21T20:00:56.309Z,0.7
2023-05-21T20:03:56.258Z,0.7
2023-05-21T20:06:56.252Z,0.65
2023-05-21T20:09:56.189Z,0.5
2023-05-21T20:12:56.191Z,0.5
2023-05-21T20:15:56.168Z,0.55
2023-05-21T20:18:56.238Z,0.45
2023-05-21T20:21:56.114Z,0.75
2023-05-21T20:24:56.196Z,0.75
2023-05-21T20:27:56.145Z,0.95
2023-05-21T20:30:56.256Z,1.15
2023-05-21T20:33:56.117Z,1.45
2023-05-21T20:36:56.184Z,1.1
2023-05-21T20:39:56.207Z,1
2023-05-21T20:42:56.171Z,0.8
2023-05-21T20:45:56.182Z,0.65
2023-05-21T20:48:56.168Z,1.55
2023-05-21T20:51:56.281Z,1.7
2023-05-21T20:54:56.125Z,0.5
2023-05-21T20:57:56.306Z,0.7
2023-05-21T21:00:56.278Z,1
2023-05-21T21:03:56.226Z,0.6
2023-05-21T21:06:56.199Z,1.35
2023-05-21T21:09:56.170Z,0.85
2023-05-21T21:12:56.385Z,1.05
2023-05-21T21:15:56.321Z,0.55
2023-05-21T21:18:56.290Z,0.2
2023-05-21T21:21:56.171Z,0.65
2023-05-21T21:24:56.243Z,0.7
2023-05-21T21:27:56.201Z,0.7
2023-05-21T21:30:56.141Z,0.4
2023-05-21T21:33:56.308Z,0.3
2023-05-21T21:36:56.449Z,0.45
2023-05-21T21:39:56.273Z,0.75
2023-05-21T21:42:56.305Z,0.9
2023-05-21T21:45:56.258Z,0.35
2023-05-21T21:48:56.323Z,0.55
2023-05-21T21:51:56.244Z,0.5
2023-05-21T21:54:56.296Z,0.75
2023-05-21T21:57:56.145Z,0.55
2023-05-21T22:00:56.595Z,0.5
2023-05-21T22:03:56.305Z,0.75
2023-05-21T22:06:56.282Z,0.55
2023-05-21T22:09:56.329Z,0.55
2023-05-21T22:12:56.260Z,1.55
2023-05-21T22:15:56.280Z,1.15
2023-05-21T22:18:56.388Z,0.9
2023-05-21T22:21:56.224Z,1.45
2023-05-21T22:24:56.279Z,0.85
2023-05-21T22:27:56.310Z,1.7
2023-05-21T22:30:56.813Z,1
2023-05-21T22:33:56.251Z,0.95
2023-05-21T22:36:56.587Z,1.15
2023-05-21T22:39:56.267Z,1.2
2023-05-21T22:42:56.348Z,0.85
2023-05-21T22:45:56.245Z,0.35
2023-05-21T22:48:56.336Z,1.35
2023-05-21T22:51:56.243Z,0.5
2023-05-21T22:54:56.285Z,0.15
2023-05-21T22:57:56.372Z,0.5
2023-05-21T23:00:56.247Z,0.25
2023-05-21T23:03:56.294Z,0.25
2023-05-21T23:06:56.265Z,0.25
2023-05-21T23:09:56.322Z,1.15
2023-05-21T23:12:56.264Z,0.5
2023-05-21T23:15:56.358Z,0.35
2023-05-21T23:18:56.306Z,0.35
2023-05-21T23:21:56.223Z,0.75
2023-05-21T23:24:56.251Z,0.35
2023-05-21T23:27:56.297Z,0.65
2023-05-21T23:30:56.335Z,0.5
2023-05-21T23:33:56.366Z,0.45
2023-05-21T23:36:58.794Z,0.6
2023-05-21T23:39:56.406Z,0.75
2023-05-21T23:42:56.320Z,0.7
2023-05-21T23:45:56.534Z,0.9
2023-05-21T23:48:56.296Z,1
2023-05-21T23:51:56.309Z,1.2
2023-05-21T23:54:56.350Z,0.8
2023-05-21T23:57:56.292Z,0.8
